Latest Weather Observations for Melbourne Airport

IDV60801

Issued at 3:32 pm EDT Saturday 22 February 2020 (issued every 10 minutes, with the page automatically refreshed every 10 minutes)

About weather observations | Map of weather stations | Latest weather observations for VIC | Other Formats
Station Details ID: 086282 Name: MELBOURNE AIRPORT Lat: -37.67 Lon: 144.83 Height: 113.4 m
Data from the previous 72 hours. | See also: Recent months at Melbourne Airport
Date/Time
EDT
Temp
°C
App
Temp
°C
Dew
Point
°C
Rel
Hum
%
Delta-T
°C
Wind Press
QNH
hPa
Press
MSL
hPa
Rain since
9am
mm
Dir  Spd
km/h
Gust
km/h
Spd
kts
Gust
kts
22/03:00pm 21.3 18.1 9.8 48 6.2 SSE 17 26 9 14 1022.3 1021.9 0.0
22/02:30pm 21.1 18.5 9.3 46 6.3 SSE 13 26 7 14 1022.4 1022.0 0.0
22/02:00pm 20.3 18.2 9.6 50 5.7 S 11 24 6 13 1022.6 1022.2 0.0
22/01:30pm 20.4 17.5 9.8 50 5.7 S 15 26 8 14 1022.7 1022.3 0.0
22/01:00pm 19.6 16.9 8.9 50 5.6 S 13 22 7 12 1023.0 1022.6 0.0
22/12:30pm 19.1 15.9 8.5 50 5.5 S 15 24 8 13 1023.5 1023.2 0.0
22/12:00pm 19.2 16.1 8.9 51 5.4 S 15 24 8 13 1023.8 1023.5 0.0
22/11:30am 18.1 14.9 8.4 53 5.0 SE 15 20 8 11 1023.9 1023.6 0.0
22/11:00am 17.6 13.6 8.2 54 4.8 SSE 19 26 10 14 1024.0 1023.7 0.0
22/10:30am 17.1 13.8 8.1 55 4.6 SSE 15 22 8 12 1023.9 1023.6 0.0
22/10:00am 16.2 13.4 8.6 60 3.9 SSE 13 19 7 10 1024.0 1023.7 0.0
22/09:30am 15.6 12.5 8.7 63 3.5 SSE 15 20 8 11 1023.9 1023.6 0.0
22/09:00am 14.9 12.0 9.5 70 2.8 SSE 15 20 8 11 1023.7 1023.4 0.0
22/08:30am 13.3 11.6 10.0 80 1.7 SW 9 11 5 6 1023.4 1023.0 0.0
22/08:00am 11.5 10.1 9.5 87 1.0 WSW 7 9 4 5 1023.0 1022.6 0.0
22/07:30am 9.9 8.2 8.3 90 0.8 SW 7 11 4 6 1022.9 1022.5 0.0
22/07:00am 9.5 7.3 8.0 90 0.7 SW 9 11 5 6 1022.6 1022.2 0.0
22/06:30am 9.8 7.3 8.1 89 0.8 SSW 11 13 6 7 1022.5 1022.1 0.0
22/06:00am 9.8 7.7 8.1 89 0.8 SW 9 11 5 6 1022.0 1021.6 0.0
22/05:30am 9.9 8.2 8.5 91 0.7 SSW 7 9 4 5 1021.9 1021.5 0.0
22/05:00am 10.2 8.2 8.6 90 0.8 SSW 9 9 5 5 1022.0 1021.6 0.0
22/04:30am 10.6 8.6 8.6 87 1.0 SSW 9 13 5 7 1022.1 1021.7 0.0
22/04:00am 10.5 7.7 8.5 87 1.0 S 13 17 7 9 1022.2 1021.8 0.0
22/03:30am 11.1 9.2 8.9 86 1.1 SSE 9 11 5 6 1022.5 1022.1 0.0
22/03:00am 11.3 8.5 8.7 84 1.3 SSE 13 15 7 8 1022.6 1022.2 0.0
22/02:30am 11.7 8.9 8.7 82 1.5 SSE 13 15 7 8 1022.8 1022.4 0.0
22/02:00am 11.7 8.2 8.9 83 1.4 SSE 17 22 9 12 1022.8 1022.4 0.0
22/01:30am 12.1 8.6 8.7 80 1.7 SSE 17 24 9 13 1023.0 1022.6 0.0
22/01:00am 12.4 8.5 8.6 77 1.9 SSE 19 22 10 12 1023.1 1022.7 0.0
22/12:30am 12.3 9.1 8.3 76 2.0 SSE 15 19 8 10 1023.2 1022.8 0.0
22/12:00am 12.7 8.8 8.5 75 2.1 SSE 19 24 10 13 1023.1 1022.7 0.0
 
Date/Time
EDT
Temp
°C
App
Temp
°C
Dew
Point
°C
Rel
Hum
%
Delta-T
°C
Wind Press
QNH
hPa
Press
MSL
hPa
Rain since
9am
mm
Dir  Spd
km/h
Gust
km/h
Spd
kts
Gust
kts
21/11:30pm 12.7 9.1 8.5 75 2.1 SSE 17 26 9 14 1023.1 1022.7 0.0
21/11:00pm 13.1 9.0 8.0 71 2.5 SSE 19 24 10 13 1023.0 1022.6 0.0
21/10:30pm 13.7 9.4 7.8 67 2.9 SE 20 28 11 15 1022.8 1022.4 0.0
21/10:00pm 13.9 9.7 8.3 69 2.8 SE 20 26 11 14 1022.7 1022.3 0.0
21/09:30pm 14.3 9.7 8.1 66 3.1 SSE 22 32 12 17 1022.3 1021.9 0.0
21/09:00pm 14.6 10.3 8.0 64 3.3 SSE 20 30 11 16 1022.0 1021.6 0.0
21/08:30pm 15.0 9.5 7.6 61 3.7 S 26 35 14 19 1021.7 1021.3 0.0
21/08:00pm 15.3 9.6 8.2 62 3.6 SSE 28 39 15 21 1021.4 1021.0 0.0
21/07:30pm 15.6 9.8 8.1 61 3.8 S 28 35 15 19 1021.2 1020.8 0.0
21/07:00pm 16.2 9.9 8.8 61 3.8 SSE 32 39 17 21 1021.0 1020.6 0.0
21/06:30pm 17.0 10.7 9.1 59 4.1 S 32 43 17 23 1020.7 1020.3 0.0
21/06:00pm 17.7 12.1 8.6 55 4.7 S 28 37 15 20 1020.4 1020.0 0.0
21/05:30pm 17.8 11.6 6.3 47 5.7 S 28 37 15 20 1020.3 1019.9 0.0
21/05:00pm 18.2 11.8 7.1 48 5.6 SSE 30 44 16 24 1020.4 1020.0 0.0
21/04:30pm 17.9 11.3 7.9 52 5.1 S 32 43 17 23 1020.4 1020.0 0.0
21/04:00pm 18.9 12.8 8.3 50 5.5 SSE 30 37 16 20 1020.5 1020.1 0.0
21/03:30pm 18.4 12.1 7.6 49 5.5 S 30 39 16 21 1020.6 1020.2 0.0
21/03:00pm 18.2 12.0 9.5 57 4.6 S 32 41 17 22 1020.7 1020.3 0.0
21/02:30pm 17.7 11.7 10.2 61 4.0 SSE 32 44 17 24 1020.8 1020.4 0.0
21/02:00pm 16.9 12.8 11.4 70 3.0 SSE 24 30 13 16 1021.0 1020.6 0.0
21/01:30pm 14.6 10.2 11.8 83 1.5 S 26 37 14 20 1021.2 1020.8 0.0
21/01:00pm 17.2 13.9 11.5 69 3.1 S 20 30 11 16 1020.9 1020.5 0.0
21/12:30pm 15.4 11.7 10.1 70 2.8 S 20 30 11 16 1021.1 1020.7 0.0
21/12:00pm 16.0 11.6 11.6 75 2.4 SSE 26 33 14 18 1021.1 1020.7 0.0
21/11:30am 15.8 11.8 11.7 76 2.2 SSW 24 35 13 19 1020.9 1020.5 0.0
21/11:00am 17.9 13.7 9.6 58 4.4 SSE 22 30 12 16 1020.4 1020.0 0.0
21/10:30am 15.7 13.1 12.0 78 2.0 SSW 17 22 9 12 1020.4 1020.0 0.0
21/10:25am 15.4 13.0 11.5 77 2.1 SSW 15 22 8 12 1020.4 1020.0 0.0
21/10:00am 14.6 12.4 12.2 85 1.3 SSW 15 20 8 11 1020.3 1019.9 0.0
21/09:47am 14.7 12.2 12.3 85 1.3 SSW 17 26 9 14 1020.2 1019.8 0.0
21/09:30am 14.3 12.2 12.3 88 1.1 SSW 15 19 8 10 1020.0 1019.6 0.0
21/09:08am 13.6 11.4 12.1 91 0.8 SW 15 19 8 10 1019.9 1019.5 0.0
21/09:00am 13.5 10.8 11.8 89 0.9 SW 17 22 9 12 1019.9 1019.5 0.2
21/08:30am 13.1 10.8 11.8 92 0.7 SW 15 17 8 9 1019.6 1019.2 0.2
21/08:29am 13.1 11.2 11.8 92 0.7 SW 13 17 7 9 1019.5 1019.1 0.2
21/08:23am 13.0 10.7 11.9 93 0.6 SW 15 20 8 11 1019.5 1019.1 0.2
21/08:00am 12.4 10.7 11.3 93 0.6 WSW 11 15 6 8 1019.3 1018.9 0.2
21/07:30am 12.2 10.9 11.4 95 0.4 SW 9 9 5 5 1018.9 1018.5 0.2
21/07:00am 12.0 10.4 11.4 96 0.3 SSW 11 17 6 9 1018.6 1018.2 0.0
21/06:46am 12.1 10.0 11.3 95 0.4 SSW 13 19 7 10 1018.5 1018.1 0.0
21/06:30am 12.0 9.5 11.2 95 0.4 SSW 15 19 8 10 1018.3 1017.9 0.0
21/06:21am 12.2 10.5 11.1 93 0.6 SSW 11 19 6 10 1018.2 1017.8 0.0
21/06:00am 12.3 9.8 11.2 93 0.6 SW 15 19 8 10 1017.9 1017.6 0.0
21/05:54am 12.3 9.8 11.2 93 0.6 SW 15 19 8 10 1017.8 1017.5 0.0
21/05:30am 12.1 10.0 11.3 95 0.4 SW 13 19 7 10 1017.7 1017.4 0.0
21/05:00am 12.0 8.5 10.9 93 0.6 SSW 20 30 11 16 1017.7 1017.4 0.0
21/04:30am 12.6 10.2 10.1 85 1.3 SSW 13 19 7 10 1017.7 1017.4 0.0
21/04:00am 12.1 10.5 10.2 88 1.0 SW 9 13 5 7 1017.6 1017.3 0.0
21/03:30am 13.0 11.5 10.5 85 1.3 SSW 9 11 5 6 1017.7 1017.4 0.0
21/03:00am 13.3 9.8 10.2 81 1.6 SSW 19 24 10 13 1017.9 1017.6 0.0
21/02:30am 13.5 10.8 10.2 80 1.7 SW 15 19 8 10 1017.9 1017.6 0.0
21/02:00am 13.8 10.5 9.7 76 2.1 SW 17 24 9 13 1018.1 1017.7 0.0
21/01:30am 13.9 10.7 10.1 78 2.0 SW 17 20 9 11 1018.2 1017.8 0.0
21/01:00am 13.9 10.9 10.5 80 1.8 SSW 17 24 9 13 1018.3 1017.9 0.0
21/12:30am 14.0 11.9 11.2 83 1.5 SW 13 17 7 9 1018.4 1018.0 0.0
21/12:00am 14.4 10.4 10.4 77 2.1 S 22 30 12 16 1018.3 1017.9 0.0
 
Date/Time
EDT
Temp
°C
App
Temp
°C
Dew
Point
°C
Rel
Hum
%
Delta-T
°C
Wind Press
QNH
hPa
Press
MSL
hPa
Rain since
9am
mm
Dir  Spd
km/h
Gust
km/h
Spd
kts
Gust
kts
20/11:30pm 14.2 10.9 10.8 80 1.8 SSW 19 26 10 14 1018.3 1017.9 0.0
20/11:00pm 14.7 11.5 9.9 73 2.5 S 17 22 9 12 1018.4 1018.0 0.0
20/10:30pm 14.8 11.1 9.6 71 2.7 S 19 26 10 14 1018.3 1017.9 0.0
20/10:00pm 14.9 10.7 9.9 72 2.6 S 22 32 12 17 1017.8 1017.5 0.0
20/09:30pm 14.8 11.3 10.2 74 2.4 S 19 26 10 14 1017.6 1017.3 0.0
20/09:00pm 14.8 11.1 10.0 73 2.5 S 20 30 11 16 1017.1 1016.8 0.0
20/08:30pm 15.1 11.5 10.6 74 2.4 S 20 30 11 16 1016.8 1016.5 0.0
20/08:00pm 14.9 11.4 10.1 73 2.5 S 19 24 10 13 1016.7 1016.4 0.0
20/07:30pm 15.6 11.9 10.3 70 2.8 SSE 20 26 11 14 1016.1 1015.8 0.0
20/07:00pm 15.8 11.7 10.1 69 3.0 SSE 22 30 12 16 1015.9 1015.5 0.0
20/06:30pm 16.3 12.7 9.8 65 3.4 S 19 26 10 14 1015.6 1015.2 0.0
20/06:00pm 17.1 13.0 10.1 63 3.7 SSE 22 30 12 16 1015.5 1015.1 0.0
20/05:30pm 17.2 13.8 10.5 64 3.6 SSE 19 28 10 15 1015.4 1015.0 0.0
20/05:00pm 17.2 13.6 10.0 62 3.8 SSE 19 26 10 14 1015.6 1015.2 0.0
20/04:30pm 16.9 13.7 9.9 63 3.7 S 17 26 9 14 1015.7 1015.3 0.0
20/04:00pm 16.4 12.4 10.6 68 3.1 SSE 22 28 12 15 1016.1 1015.8 0.0
20/03:30pm 15.9 11.7 9.6 66 3.3 S 22 30 12 16 1016.3 1016.0 0.0
20/03:00pm 16.7 12.9 9.2 61 3.9 S 19 30 10 16 1016.6 1016.3 0.0
20/02:30pm 16.2 11.8 9.0 62 3.7 S 22 33 12 18 1016.8 1016.5 0.0
20/02:00pm 15.7 11.5 8.4 62 3.7 S 20 33 11 18 1016.7 1016.4 0.0
20/01:30pm 15.5 11.7 9.1 65 3.3 SSW 19 26 10 14 1016.7 1016.4 0.0
20/01:00pm 15.6 12.2 9.2 65 3.3 SW 17 26 9 14 1016.9 1016.6 0.0
20/12:30pm 15.5 11.8 9.3 66 3.2 SSW 19 26 10 14 1017.2 1016.9 0.0
20/12:00pm 15.2 12.0 10.1 71 2.7 SW 17 24 9 13 1017.3 1017.0 0.0
20/11:30am 15.0 11.4 9.8 71 2.7 SW 19 26 10 14 1017.2 1016.9 0.0
20/11:00am 14.3 9.9 9.0 70 2.7 SW 22 30 12 16 1016.9 1016.6 0.0
20/10:30am 14.2 8.9 8.5 68 2.9 SW 26 32 14 17 1016.6 1016.3 0.0
20/10:00am 15.2 11.9 9.4 68 3.0 SSW 17 24 9 13 1016.2 1015.9 0.0
20/09:30am 14.0 10.6 9.3 73 2.4 SW 17 22 9 12 1016.2 1015.9 0.0
20/09:00am 13.4 9.3 8.6 73 2.4 SW 20 26 11 14 1015.8 1015.4 1.8
20/08:30am 13.0 8.6 8.8 75 2.1 SW 22 28 12 15 1015.5 1015.1 1.8
20/08:00am 12.8 9.4 9.3 79 1.8 SW 17 22 9 12 1015.1 1014.7 1.8
20/07:30am 12.6 8.9 9.5 81 1.6 SW 19 26 10 14 1014.9 1014.5 1.8
20/07:00am 12.5 8.9 9.8 83 1.4 SW 19 26 10 14 1014.5 1014.1 1.8
20/06:30am 12.2 8.7 10.1 87 1.1 SW 19 24 10 13 1014.1 1013.7 1.8
20/06:00am 12.4 8.0 10.3 87 1.1 SW 24 32 13 17 1014.1 1013.7 1.8
20/05:30am 12.4 8.8 10.5 88 1.0 SW 20 26 11 14 1014.0 1013.6 1.8
20/05:00am 12.4 8.8 10.7 89 0.9 SW 20 28 11 15 1014.0 1013.6 1.8
20/04:30am 12.2 8.4 11.1 93 0.6 SW 22 28 12 15 1013.8 1013.4 1.8
20/04:00am 12.4 8.9 10.9 90 0.8 SW 20 28 11 15 1013.9 1013.5 1.8
20/03:30am 12.4 9.1 10.9 90 0.8 SW 19 26 10 14 1013.9 1013.5 1.8
20/03:00am 12.3 8.5 11.2 93 0.6 SW 22 30 12 16 1014.2 1013.8 1.8
20/02:30am 12.5 8.7 11.2 92 0.7 SW 22 32 12 17 1014.3 1013.9 1.8
20/02:00am 12.5 10.6 11.9 96 0.3 WSW 13 17 7 9 1014.3 1013.9 1.8
20/01:57am 12.5 10.6 11.9 96 0.3 WSW 13 17 7 9 1014.3 1013.9 1.8
20/01:32am 12.5 9.9 11.9 96 0.3 SW 17 22 9 12 1014.7 1014.3 1.6
20/01:30am 12.4 9.7 11.8 96 0.3 SW 17 22 9 12 1014.7 1014.3 1.6
20/01:07am 12.6 9.0 11.9 95 0.4 SW 22 28 12 15 1014.7 1014.3 1.2
20/01:00am 12.7 9.6 12.1 96 0.3 SW 20 26 11 14 1014.7 1014.3 1.2
20/12:30am 13.1 9.9 11.8 92 0.7 SW 20 28 11 15 1014.5 1014.1 1.2
20/12:00am 13.4 10.7 11.7 89 0.9 SSW 17 26 9 14 1014.5 1014.1 1.0
 
Date/Time
EDT
Temp
°C
App
Temp
°C
Dew
Point
°C
Rel
Hum
%
Delta-T
°C
Wind Press
QNH
hPa
Press
MSL
hPa
Rain since
9am
mm
Dir  Spd
km/h
Gust
km/h
Spd
kts
Gust
kts
19/11:30pm 13.8 10.5 11.6 86 1.2 SSW 20 30 11 16 1014.8 1014.4 1.0
19/11:00pm 13.7 10.7 12.0 89 0.9 SW 19 26 10 14 1014.8 1014.4 1.0
19/10:30pm 14.0 10.6 11.2 83 1.5 SSW 20 28 11 15 1014.6 1014.2 1.0
19/10:00pm 14.0 11.0 12.4 90 0.9 SSW 20 28 11 15 1014.5 1014.1 1.0
19/09:30pm 13.7 9.0 12.0 89 0.9 SSW 28 39 15 21 1014.4 1014.0 1.0
19/09:17pm 13.7 9.1 12.2 91 0.8 SSW 28 37 15 20 1014.4 1014.0 1.0
19/09:03pm 13.8 9.4 12.9 94 0.5 SW 28 41 15 22 1014.3 1013.9 1.0
19/09:00pm 13.8 9.7 12.7 93 0.6 SW 26 33 14 18 1014.3 1013.9 1.0
19/08:30pm 14.0 10.1 12.2 89 1.0 SW 24 32 13 17 1013.9 1013.5 0.8
19/08:00pm 14.4 8.8 11.6 83 1.5 SSW 32 41 17 22 1013.7 1013.3 0.8
19/07:30pm 14.9 11.2 12.7 87 1.2 SSW 24 35 13 19 1013.3 1012.9 0.8
19/07:00pm 14.0 8.5 11.8 86 1.2 SSW 32 48 17 26 1013.3 1012.9 0.8
19/06:40pm 16.4 10.3 9.7 64 3.5 SSW 32 50 17 27 1012.6 1012.2 0.8
19/06:30pm 16.6 11.3 10.0 65 3.5 SSW 28 37 15 20 1012.6 1012.2 0.8
19/06:13pm 16.8 11.0 9.6 62 3.8 SSW 30 48 16 26 1012.6 1012.2 0.8
19/06:00pm 16.5 10.9 10.1 66 3.4 SSW 30 43 16 23 1012.6 1012.2 0.8
19/05:47pm 16.5 10.6 10.3 67 3.3 S 32 50 17 27 1012.6 1012.2 0.8
19/05:30pm 16.4 9.9 10.4 67 3.2 S 35 50 19 27 1012.6 1012.2 0.8
19/05:00pm 17.1 10.9 10.2 64 3.7 S 33 48 18 26 1012.5 1012.1 0.8
19/04:30pm 17.5 10.7 9.3 58 4.3 SSW 35 50 19 27 1012.1 1011.7 0.8
19/04:11pm 18.3 11.9 9.2 55 4.8 SSW 33 59 18 32 1011.9 1011.5 0.8
19/04:00pm 17.4 10.4 9.9 61 4.0 S 37 54 20 29 1011.9 1011.5 0.8
19/03:51pm 17.8 10.8 10.1 60 4.1 SSW 37 56 20 30 1011.8 1011.4 0.8

Other formats

Comma delimited format used in spreadsheet applications
http://www.bom.gov.au/fwo/IDV60801/IDV60801.94866.axf

JavaScript Object Notation format (JSON) in row-major order
http://www.bom.gov.au/fwo/IDV60801/IDV60801.94866.json

Data quality

Most of these data are generated automatically and are frequently updated. Quality checks on data are not normally performed. It is possible for incorrect values to appear. Refer to information at About Latest Weather Observations and please check the disclaimer before using these data.